Flight Track Log - Related Links

Times and Time Zones

All times are in EDT time to prevent confusion due to time zone crossing. See the EJA831 flight status page for this flight to view local times or setup timezone preferences in your user account.

Time Position Orientation Groundspeed Altitude Reporting Facility
EDT Latitude Longitude Course Direction KTS MPH feet Rate Location/Type
Fri 04:26:36 PM 49.0167 -68.3000 214° Southwest 270 311 6,400  Level Moncton Center
Fri 04:27:36 PM 48.9667 -68.3500 213° Southwest 280 322 10,900 3,800 Climbing Moncton Center
Fri 04:28:36 PM 48.8833 -68.4500 218° Southwest 310 357 14,000 2,950 Climbing Moncton Center
Fri 04:29:36 PM 48.8167 -68.5167 213° Southwest 350 403 16,800 2,650 Climbing Moncton Center
Fri 04:30:36 PM 48.7333 -68.6167 218° Southwest 360 414 19,300 2,400 Climbing Moncton Center
Fri 04:31:00 PM 48.6880 -68.6574 217° Southwest  Level FlightAware Approximate
Fri 04:31:36 PM 48.6333 -68.7000 209° Southwest 370 426 21,600  Level Moncton Center
Fri 04:32:00 PM 48.6081 -68.7254 214° Southwest  Level FlightAware Approximate
Fri 04:32:36 PM 48.5500 -68.8000 218° Southwest 390 449 23,600  Level Moncton Center
Fri 04:33:36 PM 48.4500 -68.9000 214° Southwest 400 460 25,300 2,500 Climbing Moncton Center
Fri 04:34:36 PM 48.3833 -68.9667 214° Southwest 390 449 28,600 3,150 Climbing Moncton Center
Fri 04:35:36 PM 48.3000 -69.0500 214° Southwest 370 426 31,600 2,650 Climbing Moncton Center
Fri 04:36:36 PM 48.2000 -69.1500 214° Southwest 360 414 33,900 2,000 Climbing Moncton Center
Fri 04:37:36 PM 48.1167 -69.2333 214° Southwest 370 426 35,600 1,550 Climbing Moncton Center
Fri 04:38:36 PM 48.0333 -69.3000 208° Southwest 380 437 37,000 1,800 Climbing Moncton Center
Fri 04:39:36 PM 47.9500 -69.4000 219° Southwest 370 426 39,200 1,700 Climbing Moncton Center
Fri 04:40:36 PM 47.8500 -69.4833 209° Southwest 360 414 40,400 1,200 Climbing Moncton Center
Fri 04:41:36 PM 47.7833 -69.5500 214° Southwest 360 414 41,600 1,000 Climbing Moncton Center
Fri 04:42:36 PM 47.7000 -69.6500 219° Southwest 360 414 42,400 700 Climbing Moncton Center
Fri 04:43:36 PM 47.6167 -69.7333 214° Southwest 360 414 43,000 300 Climbing Moncton Center
Fri 04:44:36 PM 47.5167 -69.8000 204° Southwest 370 426 43,000  Level Moncton Center
Fri 04:45:36 PM 47.4333 -69.9000 219° Southwest 390 449 43,000  Level Moncton Center
Fri 04:46:36 PM 47.3333 -69.9833 209° Southwest 400 460 43,000  Level Moncton Center
Fri 04:47:36 PM 47.2167 -70.0667 206° Southwest 410 472 43,000  Level Moncton Center
Fri 04:48:36 PM 47.1333 -70.1500 214° Southwest 410 472 43,000  Level Moncton Center
Fri 04:49:36 PM 47.0333 -70.2500 214° Southwest 410 472 43,000  Level Moncton Center
Fri 04:50:36 PM 46.9500 -70.3333 214° Southwest 410 472 43,000  Level Moncton Center
Fri 04:51:36 PM 46.8333 -70.4167 206° Southwest 410 472 43,000  Level Moncton Center
Fri 04:52:36 PM 46.7500 -70.5000 214° Southwest 410 472 43,000  Level Moncton Center
Fri 04:53:36 PM 46.6500 -70.6000 214° Southwest 410 472 43,000  Level Moncton Center
Fri 04:54:36 PM 46.5333 -70.7000 211° Southwest 410 472 43,000  Level Moncton Center
Fri 04:55:36 PM 46.4500 -70.7667 209° Southwest 410 472 43,000  Level Moncton Center
Fri 04:56:36 PM 46.3500 -70.8667 215° Southwest 410 472 43,000  Level Moncton Center
Fri 04:57:36 PM 46.2500 -70.9667 215° Southwest 410 472 43,000  Level Moncton Center
Fri 04:58:36 PM 46.1500 -71.0500 210° Southwest 410 472 43,000  Level Moncton Center
Fri 04:59:36 PM 46.0667 -71.1333 215° Southwest 410 472 43,000  Level Moncton Center
Fri 05:00:36 PM 45.9500 -71.1833 197° South 410 472 43,000  Level Moncton Center
Fri 05:02:00 PM 45.8684 -71.2587 213° Southwest  Level FlightAware Approximate
Fri 05:02:36 PM 45.7833 -71.3667 211° Southwest 400 460 43,000  Level Moncton Center
Fri 05:03:36 PM 45.6667 -71.4667 211° Southwest 400 460 43,000  Level Moncton Center
Fri 05:04:36 PM 45.5833 -71.5333 209° Southwest 400 460 43,000  Level Moncton Center
Fri 05:05:43 PM 45.4853 -71.6142 210° Southwest 410 472 43,000  Level Boston Center
Fri 05:06:43 PM 45.3858 -71.6956 210° Southwest 410 472 43,000  Level Boston Center
Fri 05:07:43 PM 45.2906 -71.7764 211° Southwest 410 472 43,000  Level Boston Center
Fri 05:08:43 PM 45.1931 -71.8569 210° Southwest 410 472 43,000  Level Boston Center
Fri 05:09:00 PM 45.2907 -71.7700 211° Southwest  Level FlightAware Approximate
Fri 05:09:43 PM 45.0978 -71.9372 211° Southwest 410 472 43,000  Level Boston Center
Fri 05:10:43 PM 45.0000 -72.0175 210° Southwest 410 472 43,000  Level Boston Center
Fri 05:11:54 PM 44.8983 -72.1003 210° Southwest 415 478 43,000  Level Boston Center
Fri 05:12:55 PM 44.7797 -72.1975 210° Southwest 420 483 43,000  Level Boston Center
Fri 05:13:55 PM 44.6800 -72.2767 209° Southwest 420 483 43,000  Level Boston Center
Fri 05:14:55 PM 44.5800 -72.3614 211° Southwest 425 489 43,000  Level Boston Center
Fri 05:15:55 PM 44.4781 -72.4458 211° Southwest 425 489 43,000  Level Boston Center
Fri 05:16:55 PM 44.3739 -72.5244 208° Southwest 425 489 43,000  Level Boston Center
Fri 05:17:55 PM 44.2736 -72.6083 211° Southwest 425 489 43,000  Level Boston Center
Fri 05:18:55 PM 44.1714 -72.6889 209° Southwest 425 489 43,000  Level Boston Center
Fri 05:19:55 PM 44.0692 -72.7725 210° Southwest 425 489 43,000  Level Boston Center
Fri 05:20:54 PM 43.9856 -72.8383 210° Southwest 425 489 43,000  Level Boston Center
Fri 05:21:55 PM 43.8622 -72.9383 210° Southwest 425 489 43,000 -1,388 Level Boston Center
Fri 05:22:55 PM 43.7433 -72.9661 190° South 420 483 40,200 -3,300 Descending Boston Center
Fri 05:23:55 PM 43.6308 -72.9450 172° South 438 504 36,400 -3,750 Descending Boston Center
Fri 05:24:55 PM 43.4936 -72.9267 174° South 461 531 32,700 -3,550 Descending Boston Center
Fri 05:25:55 PM 43.3686 -72.9114 175° South 461 531 29,300 -3,750 Descending Boston Center
Fri 05:26:55 PM 43.2478 -72.8933 174° South 456 525 25,200 -2,650 Descending Boston Center
Fri 05:27:55 PM 43.1639 -72.9725 215° Southwest 379 436 24,000 -750 Descending Boston Center
Fri 05:28:55 PM 43.1072 -73.0914 237° Southwest 359 413 23,700 -900 Descending Boston Center
Fri 05:29:55 PM 43.0336 -73.1842 223° Southwest 359 413 22,200 -850 Descending Boston Center
Fri 05:30:55 PM 42.9353 -73.2539 207° Southwest 384 442 22,000 -550 Descending Boston Center
Fri 05:31:55 PM 42.8389 -73.3206 207° Southwest 390 449 21,100 -1,250 Descending Boston Center
Fri 05:32:55 PM 42.7403 -73.3872 206° Southwest 390 449 19,500 -1,550 Descending Boston Center
Fri 05:33:55 PM 42.6336 -73.4503 204° Southwest 390 449 18,000 -1,500 Descending Boston Center
Fri 05:34:55 PM 42.5436 -73.4856 196° South 379 436 16,500 -1,650 Descending Boston Center
Fri 05:35:55 PM 42.4347 -73.5258 195° South 374 430 14,700 -1,600 Descending Boston Center
Fri 05:36:55 PM 42.3553 -73.5583 197° South 347 399 13,300 -1,350 Descending Boston Center
Fri 05:37:55 PM 42.2675 -73.5958 198° South 341 392 12,000 -650 Descending Boston Center
Fri 05:38:55 PM 42.1858 -73.6281 196° South 323 372 12,000  Level Boston Center
Fri 05:39:55 PM 42.0917 -73.6656 196° South 334 384 12,000  Level Boston Center
Fri 05:40:55 PM 41.9994 -73.6972 194° South 345 397 12,000  Level Boston Center
Fri 05:41:55 PM 41.9075 -73.7344 197° South 332 382 12,000  Level Boston Center
Fri 05:42:55 PM 41.8342 -73.7636 197° South 314 361 12,000 -950 Level Boston Center
Fri 05:43:55 PM 41.7767 -73.8542 230° Southwest 298 343 10,100 -1,800 Descending Boston Center
Fri 05:44:55 PM 41.7319 -73.9283 231° Southwest 293 337 8,400 -1,800 Descending Boston Center
Fri 05:45:55 PM 41.6567 -73.9572 196° South 257 296 6,500 -1,385 Descending Boston Center
Fri 05:46:39 PM 41.6000 -73.9500 175° South 273 314 6,000 -288 Descending New York TRACON
Fri 05:47:39 PM 41.5333 -73.9333 169° South 260 299 6,000 -50 Level New York TRACON
Fri 05:48:39 PM 41.4500 -73.9167 171° South 272 313 5,900 -500 Descending New York TRACON
Fri 05:49:39 PM 41.3833 -73.9000 169° South 263 303 5,000 -900 Descending New York TRACON
Fri 05:50:39 PM 41.3167 -73.8833 169° South 227 261 4,100 -950 Descending New York TRACON
Fri 05:51:39 PM 41.2667 -73.8500 153° Southeast 206 237 3,100 -1,000 Descending New York TRACON
Fri 05:52:39 PM 41.2167 -73.8167 153° Southeast 207 238 2,100 -550 Descending New York TRACON
Fri 05:53:39 PM 41.1667 -73.7833 153° Southeast 193 222 2,000 -300 Descending New York TRACON
Fri 05:54:39 PM 41.1333 -73.7500 143° Southeast 166 191 1,500 -526 Descending New York TRACON
Fri 05:55:33 PM 41.1000 -73.7333 159° South 117 135 1,000 -556 Descending New York TRACON

Login

Don't have an account? Register now (free) for customized features, flight alerts, and more!